Time;durP1;ratioP1;P1;durP2;ratioP2;P2;SDS_P1;SDS_P2;PMS_P1;PMS_P2;Temp;Humidity;BMP_temperature;BMP_pressure;BME280_temperature;BME280_humidity;BME280_pressure;Samples;Min_cycle;Max_cycle;Signal;HPM_P1;HPM_P2
2023/03/31 00:01:46;;;;;;;1.13;0.75;;;19.70;59.80;;;;;;5016739;28;20032;-60
2023/03/31 00:04:12;;;;;;;0.80;0.60;;;19.70;59.80;;;;;;5025319;28;20512;-59
2023/03/31 00:06:43;;;;;;;1.38;0.60;;;19.70;59.90;;;;;;5030023;28;20044;-60
2023/03/31 00:09:11;;;;;;;2.63;0.77;;;19.70;59.80;;;;;;5031513;28;20125;-59
2023/03/31 00:11:37;;;;;;;2.63;0.75;;;19.70;59.80;;;;;;5028832;28;20044;-58
2023/03/31 00:14:06;;;;;;;0.80;0.50;;;19.70;59.80;;;;;;5027424;28;20100;-59
2023/03/31 00:16:32;;;;;;;1.15;0.55;;;19.70;59.80;;;;;;5023078;28;20026;-59
2023/03/31 00:18:57;;;;;;;2.95;0.60;;;19.70;59.80;;;;;;5023499;28;20029;-51
2023/03/31 00:21:23;;;;;;;0.98;0.77;;;19.70;59.80;;;;;;5027298;28;20034;-57
2023/03/31 00:23:53;;;;;;;1.10;0.77;;;19.70;59.80;;;;;;5023552;28;20056;-58
2023/03/31 00:26:21;;;;;;;1.70;0.70;;;19.70;59.80;;;;;;5028150;28;20061;-59
2023/03/31 00:28:46;;;;;;;1.83;0.65;;;19.70;59.80;;;;;;5012322;28;20049;-60
2023/03/31 00:31:11;;;;;;;1.42;0.63;;;19.70;59.80;;;;;;5020986;28;20641;-58
2023/03/31 00:33:37;;;;;;;1.33;0.60;;;19.70;59.80;;;;;;5028912;28;20029;-47
2023/03/31 00:36:04;;;;;;;1.30;0.75;;;19.70;59.80;;;;;;5021187;28;20030;-58
2023/03/31 00:38:30;;;;;;;0.80;0.68;;;19.70;59.80;;;;;;5022906;28;20137;-58
2023/03/31 00:40:56;;;;;;;2.13;0.85;;;19.60;59.80;;;;;;5011937;28;20361;-52
2023/03/31 00:43:31;;;;;;;1.35;0.60;;;19.70;59.80;;;;;;5024111;28;20774;-51
2023/03/31 00:46:18;;;;;;;0.65;0.40;;;19.70;59.80;;;;;;5025744;28;20033;-59
2023/03/31 00:48:50;;;;;;;1.67;0.70;;;19.70;59.80;;;;;;5020633;28;20037;-58
2023/03/31 00:51:17;;;;;;;1.48;0.70;;;19.60;59.70;;;;;;5018935;28;20072;-54
2023/03/31 00:53:46;;;;;;;1.33;0.52;;;19.70;59.80;;;;;;5019632;28;20087;-57
2023/03/31 00:56:13;;;;;;;1.02;0.50;;;19.60;59.80;;;;;;5019916;28;20201;-58
2023/03/31 00:58:42;;;;;;;1.77;0.93;;;19.60;59.80;;;;;;5030506;28;20544;-58
2023/03/31 01:01:13;;;;;;;1.55;0.57;;;19.70;59.80;;;;;;5019426;28;20064;-58
2023/03/31 01:03:41;;;;;;;0.98;0.55;;;19.60;59.80;;;;;;5031939;28;20400;-59
2023/03/31 01:06:09;;;;;;;2.15;0.70;;;19.60;59.80;;;;;;5026975;28;20037;-57
2023/03/31 01:08:37;;;;;;;0.90;0.60;;;19.70;59.80;;;;;;5029050;28;20065;-59
2023/03/31 01:11:07;;;;;;;0.88;0.45;;;19.60;59.80;;;;;;5019974;28;20033;-53
2023/03/31 01:13:39;;;;;;;1.63;0.70;;;19.60;59.70;;;;;;5021778;28;20241;-59
2023/03/31 01:16:05;;;;;;;1.25;0.52;;;19.60;59.70;;;;;;5017631;28;20329;-59
2023/03/31 01:18:33;;;;;;;0.70;0.40;;;19.60;59.80;;;;;;5019568;28;20065;-48
2023/03/31 01:21:31;;;;;;;2.15;0.70;;;19.60;59.80;;;;;;5011387;28;20061;-60
2023/03/31 01:24:14;;;;;;;1.27;0.57;;;19.60;59.80;;;;;;5020884;28;20030;-59
2023/03/31 01:26:49;;;;;;;2.33;1.23;;;19.60;59.80;;;;;;5017132;28;20029;-59
2023/03/31 01:30:06;;;;;;;1.13;0.50;;;19.60;59.70;;;;;;5015745;28;20186;-59
2023/03/31 01:33:09;;;;;;;1.83;0.70;;;19.60;59.80;;;;;;5017785;28;20038;-59
2023/03/31 01:36:03;;;;;;;4.18;0.63;;;19.60;59.70;;;;;;5030165;28;20033;-59
2023/03/31 01:39:07;;;;;;;4.43;0.60;;;19.60;59.70;;;;;;5022851;28;20025;-58
2023/03/31 01:42:16;;;;;;;1.52;0.55;;;19.60;59.80;;;;;;4971284;28;20527;-59
2023/03/31 01:44:55;;;;;;;2.35;0.45;;;19.60;59.80;;;;;;4997423;28;20499;-59
2023/03/31 01:47:41;;;;;;;2.50;0.80;;;19.60;59.80;;;;;;5011649;28;20033;-60
2023/03/31 01:50:33;;;;;;;0.55;0.43;;;19.50;59.70;;;;;;5026116;28;20052;-55
2023/03/31 01:53:19;;;;;;;0.77;0.60;;;19.50;59.70;;;;;;5012035;28;20048;-60
2023/03/31 01:55:44;;;;;;;;;;;19.60;59.80;;;;;;5020131;28;20512;-62
2023/03/31 01:58:22;;;;;;;0.77;0.47;;;19.50;59.70;;;;;;5009374;28;19909;-58
2023/03/31 02:00:57;;;;;;;0.98;0.50;;;19.60;59.70;;;;;;5021264;28;20030;-59
2023/03/31 02:03:46;;;;;;;2.05;0.70;;;19.60;59.70;;;;;;5022140;28;20228;-58
2023/03/31 02:06:18;;;;;;;1.50;0.50;;;19.50;59.70;;;;;;5033377;28;20044;-58
2023/03/31 02:08:53;;;;;;;1.90;0.60;;;19.50;59.70;;;;;;5022868;28;20403;-49
2023/03/31 02:11:19;;;;;;;1.90;0.80;;;19.50;59.70;;;;;;5018495;28;20057;-59
2023/03/31 02:13:47;;;;;;;1.60;0.70;;;19.50;59.60;;;;;;5026078;28;20037;-57
2023/03/31 02:16:20;;;;;;;1.33;0.40;;;19.50;59.70;;;;;;5012943;28;20041;-60
2023/03/31 02:18:48;;;;;;;1.80;0.80;;;19.50;59.60;;;;;;5009401;28;20037;-60
2023/03/31 02:21:15;;;;;;;1.92;0.80;;;19.50;59.60;;;;;;5014812;28;20042;-58
2023/03/31 02:23:43;;;;;;;2.33;0.70;;;19.50;59.60;;;;;;5015527;28;20037;-56
2023/03/31 02:26:29;;;;;;;1.60;0.50;;;19.50;59.60;;;;;;5011333;28;20366;-60
2023/03/31 02:28:55;;;;;;;1.95;0.80;;;19.50;59.50;;;;;;5028746;28;20028;-59
2023/03/31 02:31:48;;;;;;;1.20;0.50;;;19.50;59.60;;;;;;5030931;28;20057;-52
2023/03/31 02:34:14;;;;;;;2.50;0.55;;;19.50;59.60;;;;;;5032630;28;20029;-58
2023/03/31 02:36:41;;;;;;;1.40;0.52;;;19.50;59.60;;;;;;5028205;28;20029;-60
2023/03/31 02:39:14;;;;;;;1.60;0.63;;;19.50;59.60;;;;;;5022805;28;20037;-60
2023/03/31 02:41:40;;;;;;;1.13;0.40;;;19.50;59.60;;;;;;5023634;28;20030;-60
2023/03/31 02:44:05;;;;;;;2.05;0.63;;;19.50;59.50;;;;;;5029659;28;20048;-57
2023/03/31 02:46:32;;;;;;;1.48;0.50;;;19.50;59.60;;;;;;5031707;28;20582;-58
2023/03/31 02:48:59;;;;;;;1.98;0.55;;;19.50;59.60;;;;;;5027756;28;20495;-58
2023/03/31 02:51:31;;;;;;;2.42;0.98;;;19.50;59.70;;;;;;5029621;28;20124;-51
2023/03/31 02:54:29;;;;;;;1.23;0.73;;;19.40;59.50;;;;;;5028712;28;20052;-59
2023/03/31 02:57:24;;;;;;;0.90;0.80;;;19.50;59.60;;;;;;5019872;28;20029;-60
2023/03/31 03:00:23;;;;;;;1.60;0.52;;;19.40;59.50;;;;;;5032441;28;20284;-60
2023/03/31 03:03:23;;;;;;;1.80;0.52;;;19.40;59.50;;;;;;5026040;28;20036;-59
2023/03/31 03:06:17;;;;;;;1.00;0.57;;;19.40;59.50;;;;;;5020236;28;20663;-60
2023/03/31 03:09:21;;;;;;;1.42;0.60;;;19.40;59.50;;;;;;5020442;28;20519;-58
2023/03/31 03:12:12;;;;;;;1.95;0.55;;;19.50;59.50;;;;;;5024572;28;20518;-59
2023/03/31 03:14:56;;;;;;;1.25;0.50;;;19.50;59.50;;;;;;5025527;28;20443;-60
2023/03/31 03:17:30;;;;;;;1.60;0.60;;;19.40;59.40;;;;;;5016603;28;20030;-59
2023/03/31 03:19:59;;;;;;;1.20;0.57;;;19.40;59.40;;;;;;5009414;28;20033;-57
2023/03/31 03:22:25;;;;;;;2.08;0.60;;;19.40;59.40;;;;;;5019493;28;20518;-59
2023/03/31 03:24:51;;;;;;;1.05;0.43;;;19.40;59.40;;;;;;5025113;28;20029;-58
2023/03/31 03:27:17;;;;;;;2.88;0.60;;;19.40;59.40;;;;;;5017794;28;20056;-60
2023/03/31 03:29:42;;;;;;;0.98;0.40;;;19.40;59.40;;;;;;5019829;28;20033;-60
2023/03/31 03:32:09;;;;;;;1.90;0.68;;;19.40;59.40;;;;;;5024071;28;20025;-59
2023/03/31 03:34:35;;;;;;;1.90;0.70;;;19.40;59.40;;;;;;5025626;28;20407;-56
2023/03/31 03:37:00;;;;;;;1.45;0.43;;;19.40;59.40;;;;;;5017861;28;20039;-60
2023/03/31 03:39:26;;;;;;;1.63;0.60;;;19.40;59.40;;;;;;5024218;28;20492;-52
2023/03/31 03:41:51;;;;;;;0.85;0.50;;;19.40;59.40;;;;;;5021280;28;20021;-59
2023/03/31 03:44:17;;;;;;;1.15;0.50;;;19.40;59.40;;;;;;5019545;28;20056;-59
2023/03/31 03:46:42;;;;;;;1.65;0.60;;;19.40;59.40;;;;;;5026855;28;20395;-58
2023/03/31 03:49:08;;;;;;;1.25;0.45;;;19.40;59.40;;;;;;5025050;28;20038;-58
2023/03/31 03:51:33;;;;;;;4.13;0.50;;;19.40;59.40;;;;;;5023467;28;20048;-54
2023/03/31 03:53:59;;;;;;;1.02;0.60;;;19.40;59.40;;;;;;5019668;28;20033;-59
2023/03/31 03:56:25;;;;;;;2.05;0.60;;;19.40;59.40;;;;;;5017788;28;20037;-59
2023/03/31 03:58:50;;;;;;;2.42;0.70;;;19.40;59.40;;;;;;5014764;28;20497;-60
2023/03/31 04:01:16;;;;;;;1.20;0.50;;;19.40;59.40;;;;;;5032854;28;20061;-59
2023/03/31 04:03:42;;;;;;;2.22;0.50;;;19.40;59.60;;;;;;5022020;28;20400;-59
2023/03/31 04:06:08;;;;;;;0.93;0.50;;;19.40;59.40;;;;;;5026890;28;20255;-59
2023/03/31 04:08:33;;;;;;;1.33;0.63;;;19.40;59.40;;;;;;5025139;28;20369;-58
2023/03/31 04:10:59;;;;;;;1.13;0.80;;;19.30;59.30;;;;;;5019772;28;20061;-60
2023/03/31 04:13:24;;;;;;;1.52;0.40;;;19.40;59.40;;;;;;5022771;28;20037;-58
2023/03/31 04:15:50;;;;;;;0.70;0.50;;;19.30;59.30;;;;;;5016860;28;20040;-58
2023/03/31 04:18:24;;;;;;;1.33;0.60;;;19.30;59.30;;;;;;5013627;28;20524;-58
2023/03/31 04:21:03;;;;;;;1.15;0.57;;;19.40;59.40;;;;;;5016504;28;20153;-59
2023/03/31 04:23:45;;;;;;;0.50;0.32;;;19.40;59.40;;;;;;5022757;28;20034;-58
2023/03/31 04:26:12;;;;;;;1.52;0.60;;;19.40;59.40;;;;;;5025387;28;20272;-60
2023/03/31 04:28:41;;;;;;;1.73;0.50;;;19.30;59.30;;;;;;5025208;28;20042;-59
2023/03/31 04:31:08;;;;;;;1.13;0.60;;;19.40;59.40;;;;;;5022540;28;20041;-49
2023/03/31 04:33:37;;;;;;;1.27;0.43;;;19.30;59.30;;;;;;5017038;28;20045;-60
2023/03/31 04:36:05;;;;;;;2.63;0.63;;;19.30;59.30;;;;;;5017544;28;20053;-54
2023/03/31 04:38:32;;;;;;;1.48;0.65;;;19.30;59.30;;;;;;5022517;28;20025;-53
2023/03/31 04:40:58;;;;;;;2.67;0.60;;;19.30;59.30;;;;;;5010911;28;20125;-59
2023/03/31 04:43:24;;;;;;;1.20;0.50;;;19.30;59.30;;;;;;5023378;28;20034;-60
2023/03/31 04:45:50;;;;;;;1.10;0.50;;;19.30;59.30;;;;;;5028830;28;20544;-58
2023/03/31 04:48:15;;;;;;;1.70;0.70;;;19.30;59.30;;;;;;5026210;28;20037;-60
2023/03/31 04:50:41;;;;;;;1.05;0.60;;;19.30;59.30;;;;;;5020170;28;20087;-61
2023/03/31 04:53:07;;;;;;;1.63;0.55;;;19.30;59.30;;;;;;5021804;28;20674;-60
2023/03/31 04:55:33;;;;;;;3.17;0.88;;;19.30;59.30;;;;;;5028443;28;20032;-61
2023/03/31 04:57:59;;;;;;;2.88;0.60;;;19.30;59.30;;;;;;5026748;28;20450;-58
2023/03/31 05:00:25;;;;;;;5.38;1.10;;;19.30;59.30;;;;;;5027952;28;20128;-58
2023/03/31 05:02:51;;;;;;;4.53;2.50;;;19.40;59.40;;;;;;5028385;28;20041;-60
2023/03/31 05:05:16;;;;;;;6.00;3.55;;;19.30;59.30;;;;;;5021657;28;20108;-57
2023/03/31 05:07:42;;;;;;;4.65;3.28;;;19.30;59.30;;;;;;5021042;28;20038;-52
2023/03/31 05:10:08;;;;;;;5.13;3.95;;;19.40;59.40;;;;;;5018876;28;20516;-58
2023/03/31 05:12:37;;;;;;;5.72;3.58;;;19.30;59.40;;;;;;5023550;28;20056;-61
2023/03/31 05:15:04;;;;;;;8.05;3.65;;;19.40;60.10;;;;;;5022403;28;20617;-59
2023/03/31 05:17:34;;;;;;;7.18;3.15;;;19.40;60.00;;;;;;5017902;28;20460;-60
2023/03/31 05:20:00;;;;;;;7.30;3.10;;;19.40;59.90;;;;;;5023293;28;20029;-61
2023/03/31 05:22:26;;;;;;;11.32;3.47;;;19.50;59.90;;;;;;5018930;28;20319;-53
2023/03/31 05:24:52;;;;;;;11.65;3.78;;;19.50;59.80;;;;;;5011245;28;20022;-60
2023/03/31 05:27:20;;;;;;;5.97;3.42;;;19.60;59.90;;;;;;5018507;28;20029;-55
2023/03/31 05:29:46;;;;;;;7.20;2.55;;;19.60;59.80;;;;;;5016793;28;20032;-60
2023/03/31 05:32:11;;;;;;;8.73;2.88;;;19.60;59.70;;;;;;5018223;28;20030;-58
2023/03/31 05:34:36;;;;;;;5.60;2.67;;;19.60;59.60;;;;;;5013413;28;20024;-54
2023/03/31 05:37:02;;;;;;;5.45;2.92;;;19.60;59.70;;;;;;5012902;28;20117;-60
2023/03/31 05:39:31;;;;;;;8.43;3.08;;;19.60;59.90;;;;;;5022177;28;20091;-60
2023/03/31 05:41:58;;;;;;;4.90;2.13;;;19.60;59.50;;;;;;5022561;28;20017;-60
2023/03/31 05:44:23;;;;;;;7.30;2.72;;;19.70;59.60;;;;;;5020552;28;20037;-59
2023/03/31 05:46:49;;;;;;;5.47;2.30;;;19.70;59.50;;;;;;5019483;28;20397;-58
2023/03/31 05:49:15;;;;;;;6.10;3.10;;;19.60;59.50;;;;;;5021791;28;20034;-58
2023/03/31 05:51:41;;;;;;;5.78;2.75;;;19.60;59.50;;;;;;5012899;28;20041;-58
2023/03/31 05:54:06;;;;;;;11.57;2.75;;;19.60;59.50;;;;;;5022661;28;20228;-56
2023/03/31 05:56:32;;;;;;;5.57;2.30;;;19.60;59.50;;;;;;5016510;28;20052;-51
2023/03/31 05:59:00;;;;;;;3.53;2.10;;;19.60;59.30;;;;;;5016058;28;20436;-61
2023/03/31 06:01:26;;;;;;;3.42;2.53;;;19.60;59.60;;;;;;5014268;28;20311;-60
2023/03/31 06:03:51;;;;;;;4.22;2.00;;;19.70;59.60;;;;;;5008177;28;20120;-59
2023/03/31 06:06:18;;;;;;;5.05;2.33;;;19.70;59.40;;;;;;5008564;28;20037;-60
2023/03/31 06:08:45;;;;;;;6.25;1.88;;;19.70;59.40;;;;;;5021715;28;20310;-61
2023/03/31 06:11:16;;;;;;;2.63;1.85;;;19.80;59.30;;;;;;5023986;28;20456;-58
2023/03/31 06:13:42;;;;;;;6.25;1.85;;;19.80;59.20;;;;;;5024521;28;20026;-59
2023/03/31 06:16:10;;;;;;;4.90;2.10;;;19.80;59.20;;;;;;5017868;28;20040;-58
2023/03/31 06:18:35;;;;;;;7.63;1.75;;;19.90;59.20;;;;;;5019025;28;20494;-60
2023/03/31 06:21:02;;;;;;;4.28;1.55;;;19.90;59.20;;;;;;5023940;28;20060;-54
2023/03/31 06:23:27;;;;;;;5.22;1.95;;;19.90;59.20;;;;;;5022227;28;20031;-63
2023/03/31 06:25:53;;;;;;;7.22;2.00;;;19.90;59.30;;;;;;5024853;28;20029;-56
2023/03/31 06:28:20;;;;;;;9.13;3.03;;;19.90;59.60;;;;;;5021019;28;20042;-61
2023/03/31 06:30:46;;;;;;;8.88;3.75;;;20.00;59.90;;;;;;5023800;28;20044;-60
2023/03/31 06:33:12;;;;;;;13.82;3.55;;;20.00;60.10;;;;;;5022170;28;20487;-60
2023/03/31 06:35:38;;;;;;;10.55;3.47;;;20.10;60.00;;;;;;5019724;28;20413;-57
2023/03/31 06:38:04;;;;;;;8.90;3.80;;;20.10;60.20;;;;;;5023444;28;20037;-51
2023/03/31 06:40:29;;;;;;;9.27;3.25;;;20.10;60.30;;;;;;5017023;28;20039;-59
2023/03/31 06:42:55;;;;;;;9.52;3.50;;;20.10;60.10;;;;;;5022333;28;20159;-59
2023/03/31 06:45:20;;;;;;;10.38;3.30;;;20.20;60.20;;;;;;5035962;28;20036;-61
2023/03/31 06:47:46;;;;;;;8.85;3.00;;;20.20;60.10;;;;;;5037431;28;20190;-57
2023/03/31 06:50:11;;;;;;;8.55;2.92;;;20.20;60.10;;;;;;5036338;28;20124;-60
2023/03/31 06:52:39;;;;;;;12.30;2.88;;;20.30;60.00;;;;;;5036437;28;21044;-60
2023/03/31 06:55:05;;;;;;;9.52;2.97;;;20.20;59.80;;;;;;5037158;28;20037;-59
2023/03/31 06:57:32;;;;;;;8.43;3.13;;;20.30;59.70;;;;;;5038704;28;20412;-61
2023/03/31 06:59:58;;;;;;;10.15;3.05;;;20.30;59.50;;;;;;5036666;28;20174;-60
2023/03/31 07:02:23;;;;;;;12.60;3.15;;;20.30;59.50;;;;;;5040554;28;20555;-61
2023/03/31 07:04:49;;;;;;;12.73;2.95;;;20.30;59.50;;;;;;5038950;28;20655;-58
2023/03/31 07:07:15;;;;;;;7.60;2.75;;;20.30;59.50;;;;;;5031735;28;20849;-59
2023/03/31 07:09:40;;;;;;;11.65;3.05;;;20.30;59.40;;;;;;5043777;28;20028;-59
2023/03/31 07:12:06;;;;;;;15.73;3.35;;;20.20;59.40;;;;;;5020662;28;20022;-54
2023/03/31 07:14:32;;;;;;;11.52;3.05;;;20.20;59.40;;;;;;5028923;28;20072;-58
2023/03/31 07:16:58;;;;;;;6.63;2.53;;;20.20;59.30;;;;;;5033844;28;20032;-56
2023/03/31 07:19:24;;;;;;;12.80;3.47;;;20.20;59.30;;;;;;5035279;28;20041;-58
2023/03/31 07:21:50;;;;;;;7.20;2.83;;;20.20;59.30;;;;;;5034476;28;20029;-56
2023/03/31 07:24:15;;;;;;;9.40;2.60;;;20.20;59.30;;;;;;5034739;28;20078;-59
2023/03/31 07:26:41;;;;;;;11.05;2.88;;;20.20;59.30;;;;;;5037932;28;20257;-58
2023/03/31 07:29:06;;;;;;;10.43;2.97;;;20.10;59.20;;;;;;5018582;28;20030;-54
2023/03/31 07:31:32;;;;;;;8.18;2.65;;;20.10;59.10;;;;;;5017526;28;20508;-59
2023/03/31 07:33:58;;;;;;;10.82;2.78;;;20.10;59.10;;;;;;5010217;28;20041;-58
2023/03/31 07:36:23;;;;;;;5.65;2.60;;;20.10;59.00;;;;;;5015743;28;20545;-59
2023/03/31 07:38:49;;;;;;;7.22;2.30;;;20.10;59.00;;;;;;5018085;28;20075;-52
2023/03/31 07:41:16;;;;;;;7.47;2.60;;;20.10;58.90;;;;;;5027283;28;20086;-52
2023/03/31 07:43:43;;;;;;;7.40;2.30;;;20.10;58.90;;;;;;5037935;28;20037;-60
2023/03/31 07:46:20;;;;;;;9.60;2.17;;;20.10;58.80;;;;;;5032856;28;20033;-56
2023/03/31 07:48:47;;;;;;;4.15;2.22;;;20.10;58.80;;;;;;5034400;28;20068;-61
2023/03/31 07:51:15;;;;;;;8.40;1.90;;;20.10;58.80;;;;;;5032378;28;20060;-60
2023/03/31 07:53:41;;;;;;;7.38;1.92;;;20.10;58.80;;;;;;5033599;28;20025;-53
2023/03/31 07:56:06;;;;;;;11.93;2.20;;;20.10;58.70;;;;;;5039046;28;20114;-58
2023/03/31 07:58:31;;;;;;;9.57;2.53;;;20.10;58.80;;;;;;5033363;28;20036;-54
2023/03/31 08:00:57;;;;;;;6.82;2.70;;;20.00;58.70;;;;;;5037183;28;20037;-60
2023/03/31 08:03:22;;;;;;;5.78;1.80;;;20.00;58.70;;;;;;5035061;28;20277;-54
2023/03/31 08:05:51;;;;;;;6.53;1.80;;;20.00;58.80;;;;;;5029951;28;20033;-61
2023/03/31 08:08:16;;;;;;;7.18;2.65;;;20.00;58.70;;;;;;5037890;28;20048;-52
2023/03/31 08:10:42;;;;;;;7.15;2.65;;;20.00;58.70;;;;;;5038178;28;20037;-59
2023/03/31 08:13:07;;;;;;;6.22;2.35;;;20.00;58.70;;;;;;5037178;28;20082;-56
2023/03/31 08:15:33;;;;;;;4.60;2.15;;;20.00;58.80;;;;;;5033961;28;20041;-59
2023/03/31 08:17:58;;;;;;;5.63;2.03;;;19.90;58.80;;;;;;5033110;28;20517;-52
2023/03/31 08:20:24;;;;;;;7.35;1.77;;;19.90;58.70;;;;;;5032497;28;20036;-59
2023/03/31 08:22:50;;;;;;;7.47;1.77;;;19.90;58.80;;;;;;5033687;28;20037;-60
2023/03/31 08:25:16;;;;;;;8.07;1.85;;;19.90;58.80;;;;;;5032962;28;20617;-57
2023/03/31 08:27:41;;;;;;;3.55;1.73;;;19.90;58.70;;;;;;5012461;28;20037;-58
2023/03/31 08:30:09;;;;;;;4.32;2.13;;;19.90;58.80;;;;;;5019161;28;20080;-54
2023/03/31 08:32:35;;;;;;;4.00;1.55;;;19.90;58.80;;;;;;5035887;28;20033;-57
2023/03/31 08:35:00;;;;;;;5.90;1.92;;;19.90;58.80;;;;;;5035754;28;20420;-56
2023/03/31 08:37:30;;;;;;;3.60;1.83;;;19.90;58.80;;;;;;5041822;28;20037;-52
2023/03/31 08:39:56;;;;;;;3.53;1.50;;;19.90;58.80;;;;;;5029095;28;20030;-58
2023/03/31 08:42:50;;;;;;;6.38;1.70;;;19.90;58.80;;;;;;5026261;28;20037;-59
2023/03/31 08:45:38;;;;;;;4.05;1.55;;;19.90;58.80;;;;;;5035563;28;20110;-60
2023/03/31 08:48:25;;;;;;;8.45;2.22;;;19.90;58.80;;;;;;5031122;28;20044;-59
2023/03/31 08:51:06;;;;;;;2.30;1.17;;;19.90;58.80;;;;;;5033024;28;20044;-59
2023/03/31 08:53:36;;;;;;;4.70;1.70;;;19.90;58.80;;;;;;5032950;28;20033;-60
2023/03/31 08:56:06;;;;;;;3.35;1.67;;;19.80;58.80;;;;;;5032462;28;20041;-54
2023/03/31 08:58:40;;;;;;;5.18;1.60;;;19.80;58.80;;;;;;5030804;28;20033;-51
2023/03/31 09:01:24;;;;;;;3.88;1.70;;;19.80;58.80;;;;;;5038608;28;20127;-60
2023/03/31 09:04:10;;;;;;;4.70;1.75;;;19.80;58.70;;;;;;5021483;28;20029;-60
2023/03/31 09:06:41;;;;;;;6.75;1.55;;;19.80;58.80;;;;;;5015608;28;20566;-60
2023/03/31 09:09:14;;;;;;;8.43;2.05;;;19.80;58.80;;;;;;5016090;28;20437;-60
2023/03/31 09:11:50;;;;;;;6.18;1.77;;;19.80;58.80;;;;;;5034817;28;20036;-60
2023/03/31 09:14:31;;;;;;;5.10;1.65;;;19.80;58.90;;;;;;5032609;28;20033;-59
2023/03/31 09:17:23;;;;;;;4.18;1.50;;;19.80;58.80;;;;;;5032927;28;20121;-59
2023/03/31 09:19:48;;;;;;;2.10;1.30;;;19.80;58.90;;;;;;5022336;28;20492;-59
2023/03/31 09:22:37;;;;;;;3.42;1.50;;;19.80;58.90;;;;;;5032978;28;20025;-54
2023/03/31 09:25:17;;;;;;;4.72;1.27;;;19.80;58.90;;;;;;5030862;28;20033;-61
2023/03/31 09:27:43;;;;;;;14.05;1.92;;;19.80;58.90;;;;;;5028431;28;20029;-58
2023/03/31 09:30:19;;;;;;;3.85;1.08;;;19.80;58.90;;;;;;5035863;28;20038;-61
2023/03/31 09:32:47;;;;;;;2.15;1.27;;;19.80;58.90;;;;;;5032877;28;20515;-60
2023/03/31 09:35:25;;;;;;;4.20;1.15;;;19.70;58.90;;;;;;5036273;28;20045;-60
2023/03/31 09:37:52;;;;;;;4.38;1.20;;;19.80;58.90;;;;;;5017057;28;20107;-60
2023/03/31 09:40:22;;;;;;;4.03;1.38;;;19.70;58.90;;;;;;5017371;28;20052;-59
2023/03/31 09:42:53;;;;;;;2.85;1.40;;;19.70;58.80;;;;;;5033735;28;20071;-59
2023/03/31 09:45:19;;;;;;;2.67;1.13;;;19.70;58.80;;;;;;5021239;28;20361;-61
2023/03/31 09:47:56;;;;;;;3.63;1.25;;;19.70;58.90;;;;;;5011787;28;20045;-55
2023/03/31 09:50:25;;;;;;;3.15;1.20;;;19.70;58.80;;;;;;5014785;28;20053;-58
2023/03/31 09:52:57;;;;;;;4.50;1.35;;;19.70;58.80;;;;;;5030466;28;20044;-60
2023/03/31 09:55:28;;;;;;;2.83;1.15;;;19.70;58.90;;;;;;5027782;28;20582;-58
2023/03/31 09:57:54;;;;;;;2.38;0.98;;;19.70;58.90;;;;;;5033263;28;20037;-54
2023/03/31 10:00:22;;;;;;;2.13;1.20;;;19.70;58.90;;;;;;5036170;28;20546;-60
2023/03/31 10:02:56;;;;;;;2.08;1.30;;;19.70;58.90;;;;;;5021239;28;20084;-58
2023/03/31 10:05:31;;;;;;;1.85;0.90;;;19.70;58.90;;;;;;5030010;28;20112;-60
2023/03/31 10:08:09;;;;;;;3.33;1.38;;;19.70;58.90;;;;;;5014996;28;20060;-58
2023/03/31 10:10:35;;;;;;;4.00;0.98;;;19.70;58.90;;;;;;5032913;28;20522;-58
2023/03/31 10:13:07;;;;;;;1.73;0.90;;;19.70;58.80;;;;;;5033537;28;20033;-55
2023/03/31 10:15:37;;;;;;;6.65;1.02;;;19.70;58.80;;;;;;5030261;28;20039;-58
2023/03/31 10:18:02;;;;;;;1.92;1.10;;;19.70;58.80;;;;;;5031996;28;20057;-52
2023/03/31 10:20:41;;;;;;;2.33;0.95;;;19.70;58.80;;;;;;5035732;28;20057;-55
2023/03/31 10:23:28;;;;;;;2.65;1.10;;;19.70;58.90;;;;;;5033633;28;20044;-55
2023/03/31 10:25:54;;;;;;;4.90;1.40;;;19.70;58.90;;;;;;5029447;28;20039;-57
2023/03/31 10:28:20;;;;;;;6.50;1.20;;;19.60;58.90;;;;;;5037115;28;20033;-58
2023/03/31 10:30:52;;;;;;;3.50;1.20;;;19.60;58.90;;;;;;5036033;28;20033;-51
2023/03/31 10:33:29;;;;;;;4.00;1.20;;;19.60;59.00;;;;;;5033689;28;20041;-53
2023/03/31 10:36:00;;;;;;;2.65;1.50;;;19.60;59.00;;;;;;5034013;28;20152;-51
2023/03/31 10:38:52;;;;;;;4.95;1.55;;;19.60;59.10;;;;;;5029992;28;20538;-52
2023/03/31 10:41:27;;;;;;;3.35;1.50;;;19.60;59.20;;;;;;5023460;28;20091;-55
2023/03/31 10:43:55;;;;;;;8.00;1.60;;;19.60;59.20;;;;;;5016168;28;20712;-57
2023/03/31 10:46:45;;;;;;;3.25;1.38;;;19.60;59.20;;;;;;5030166;28;20041;-53
2023/03/31 10:49:26;;;;;;;5.18;1.30;;;19.60;59.20;;;;;;5028935;28;20045;-54
2023/03/31 10:51:57;;;;;;;5.40;1.33;;;19.60;59.30;;;;;;5032262;28;20033;-56
2023/03/31 10:54:24;;;;;;;5.10;1.45;;;19.60;59.30;;;;;;5023417;28;20548;-58
2023/03/31 10:57:00;;;;;;;4.43;1.48;;;19.60;59.30;;;;;;5029935;28;20045;-51
2023/03/31 10:59:58;;;;;;;9.57;1.88;;;19.60;59.40;;;;;;5038888;28;20405;-51
2023/03/31 11:02:52;;;;;;;6.47;1.80;;;19.60;59.40;;;;;;5041359;28;20025;-57
2023/03/31 11:05:37;;;;;;;4.10;1.30;;;19.60;59.40;;;;;;5040229;28;20119;-57
2023/03/31 11:08:24;;;;;;;4.10;1.40;;;19.60;59.40;;;;;;5036777;28;20029;-56
2023/03/31 11:11:05;;;;;;;5.40;1.40;;;19.60;59.50;;;;;;5036577;28;20021;-58
2023/03/31 11:13:51;;;;;;;4.60;1.05;;;19.60;59.40;;;;;;5029151;28;20038;-56
2023/03/31 11:16:36;;;;;;;;;;;19.60;59.40;;;;;;5033060;28;20041;-57
2023/03/31 11:19:04;;;;;;;2.42;0.80;;;19.50;59.30;;;;;;5034981;28;19920;-60
2023/03/31 11:21:55;;;;;;;1.98;0.90;;;19.60;59.40;;;;;;5039766;28;20575;-58
2023/03/31 11:24:59;;;;;;;5.30;2.00;;;19.60;59.30;;;;;;5030735;28;20631;-59
2023/03/31 11:27:41;;;;;;;4.32;1.27;;;19.60;59.40;;;;;;5028689;28;20519;-58
2023/03/31 11:30:24;;;;;;;4.85;1.42;;;19.60;59.30;;;;;;5023989;28;20579;-50
2023/03/31 11:33:02;;;;;;;3.47;1.10;;;19.60;59.30;;;;;;5033508;28;20033;-58
2023/03/31 11:36:12;;;;;;;3.50;1.00;;;19.60;59.30;;;;;;5035483;28;20111;-55
2023/03/31 11:38:46;;;;;;;4.53;1.20;;;19.60;59.30;;;;;;5038265;28;20484;-57
2023/03/31 11:41:31;;;;;;;4.32;0.98;;;19.60;59.30;;;;;;5035990;28;20033;-61
2023/03/31 11:44:10;;;;;;;5.35;1.35;;;19.60;59.30;;;;;;5033998;28;20483;-56
2023/03/31 11:46:52;;;;;;;3.60;1.20;;;19.60;59.40;;;;;;5031941;28;20152;-62
2023/03/31 11:49:43;;;;;;;6.20;1.08;;;19.50;59.40;;;;;;5016892;28;20045;-61
2023/03/31 11:52:14;;;;;;;4.90;1.13;;;19.50;59.40;;;;;;5012491;28;20043;-61
2023/03/31 11:55:01;;;;;;;6.53;1.60;;;19.50;59.50;;;;;;5008134;28;20037;-62
2023/03/31 11:57:45;;;;;;;5.70;1.15;;;19.50;59.50;;;;;;5033005;28;20414;-61
2023/03/31 12:00:12;;;;;;;7.40;1.50;;;19.50;59.40;;;;;;5020041;28;20044;-59
2023/03/31 12:03:03;;;;;;;3.80;1.83;;;19.50;59.40;;;;;;5040259;28;20028;-62
2023/03/31 12:05:31;;;;;;;4.50;1.42;;;19.50;59.50;;;;;;5025173;28;20049;-60
2023/03/31 12:08:15;;;;;;;3.55;1.42;;;19.50;59.50;;;;;;5014107;28;20038;-58
2023/03/31 12:10:48;;;;;;;4.30;1.25;;;19.50;59.40;;;;;;5034405;28;20037;-61
2023/03/31 12:13:24;;;;;;;1.90;1.10;;;19.50;59.40;;;;;;5032644;28;20099;-61
2023/03/31 12:16:05;;;;;;;3.42;0.80;;;19.50;59.40;;;;;;5035022;28;20025;-61
2023/03/31 12:18:41;;;;;;;2.55;1.08;;;19.60;59.50;;;;;;5035001;28;20519;-61
2023/03/31 12:21:09;;;;;;;5.03;0.93;;;19.50;59.40;;;;;;5015114;28;20048;-52
2023/03/31 12:23:43;;;;;;;4.55;1.35;;;19.50;59.40;;;;;;5012264;28;20052;-61
2023/03/31 12:26:38;;;;;;;3.53;1.30;;;19.50;59.50;;;;;;5019806;28;20133;-60
2023/03/31 12:29:16;;;;;;;3.97;0.93;;;19.50;59.30;;;;;;5034108;28;20025;-55
2023/03/31 12:31:44;;;;;;;3.00;1.25;;;19.50;59.30;;;;;;5032767;28;20064;-61
2023/03/31 12:34:14;;;;;;;2.10;1.00;;;19.50;59.30;;;;;;5034199;28;20373;-62
2023/03/31 12:37:14;;;;;;;4.72;1.02;;;19.50;59.30;;;;;;5035958;28;20343;-59
2023/03/31 12:39:51;;;;;;;3.60;1.10;;;19.50;59.20;;;;;;5035626;28;20060;-62
2023/03/31 12:42:52;;;;;;;2.55;1.00;;;19.50;59.10;;;;;;5033559;28;20041;-61
2023/03/31 12:45:28;;;;;;;3.50;1.23;;;19.50;59.10;;;;;;5027851;28;20056;-61
2023/03/31 12:48:16;;;;;;;;;;;19.50;59.10;;;;;;5031002;28;20476;-61
2023/03/31 12:51:00;;;;;;;2.20;1.17;;;19.50;59.10;;;;;;5034375;28;19966;-61
2023/03/31 12:53:55;;;;;;;4.65;1.10;;;19.50;59.10;;;;;;5034849;28;20102;-61
2023/03/31 12:56:21;;;;;;;2.63;1.13;;;19.50;59.10;;;;;;5014344;28;20395;-56
2023/03/31 12:58:46;;;;;;;3.17;1.00;;;19.50;59.20;;;;;;5035285;28;20086;-57
2023/03/31 13:01:22;;;;;;;1.63;0.85;;;19.50;59.10;;;;;;5036738;28;20512;-61
2023/03/31 13:03:51;;;;;;;1.50;1.00;;;19.50;59.10;;;;;;5037423;28;20029;-62
2023/03/31 13:06:28;;;;;;;2.17;1.20;;;19.50;59.10;;;;;;5036133;28;20426;-64
2023/03/31 13:09:26;;;;;;;1.27;0.80;;;19.60;59.20;;;;;;5033728;28;20049;-59
2023/03/31 13:11:51;;;;;;;2.40;1.10;;;19.50;59.30;;;;;;5033872;28;20033;-61
2023/03/31 13:14:29;;;;;;;3.88;0.88;;;19.50;59.40;;;;;;5030432;28;20033;-63
2023/03/31 13:17:10;;;;;;;2.92;0.90;;;19.50;59.30;;;;;;5034072;28;20033;-62